Time;durP1;ratioP1;P1;durP2;ratioP2;P2;SDS_P1;SDS_P2;PMS_P1;PMS_P2;Temp;Humidity;BMP_temperature;BMP_pressure;BME280_temperature;BME280_humidity;BME280_pressure;Samples;Min_cycle;Max_cycle;Signal;HPM_P1;HPM_P2
2023/07/01 00:02:00;;;;;;;4.20;1.70;;;;;;;17.84;50.83;100702.34;5025880;28;20468;-87
2023/07/01 00:04:25;;;;;;;4.65;1.23;;;;;;;17.82;50.93;100693.69;5027361;28;20030;-88
2023/07/01 00:06:50;;;;;;;2.90;1.38;;;;;;;17.81;51.02;100689.34;5028241;28;20041;-87
2023/07/01 00:09:15;;;;;;;6.32;1.58;;;;;;;17.81;50.89;100686.72;5026787;28;20017;-87
2023/07/01 00:11:41;;;;;;;3.60;1.65;;;;;;;17.81;51.49;100689.34;5030501;28;20033;-88
2023/07/01 00:14:06;;;;;;;3.47;1.80;;;;;;;17.81;51.87;100690.22;5029629;28;20033;-88
2023/07/01 00:16:31;;;;;;;4.72;1.52;;;;;;;17.81;51.36;100678.81;5029746;28;20072;-88
2023/07/01 00:18:57;;;;;;;4.22;1.25;;;;;;;17.80;51.85;100669.22;5027645;28;20025;-88
2023/07/01 00:21:22;;;;;;;2.67;1.20;;;;;;;17.78;51.92;100674.59;5028597;28;20644;-88
2023/07/01 00:23:47;;;;;;;2.70;1.20;;;;;;;17.77;51.50;100672.91;5029032;28;20076;-88
2023/07/01 00:26:12;;;;;;;2.97;1.23;;;;;;;17.74;51.64;100667.81;5026388;28;20057;-88
2023/07/01 00:28:38;;;;;;;3.38;1.30;;;;;;;17.73;52.12;100658.22;5027575;28;20488;-88
2023/07/01 00:31:03;;;;;;;4.35;1.40;;;;;;;17.72;52.15;100660.03;5028252;28;20021;-88
2023/07/01 00:33:28;;;;;;;3.13;1.40;;;;;;;17.70;52.40;100659.25;5030145;28;20375;-88
2023/07/01 00:35:54;;;;;;;4.03;1.50;;;;;;;17.68;52.39;100658.50;5027811;28;20353;-87
2023/07/01 00:38:19;;;;;;;3.45;1.50;;;;;;;17.67;51.99;100645.44;5028950;28;20078;-88
2023/07/01 00:40:44;;;;;;;3.13;1.40;;;;;;;17.65;52.62;100649.94;5028460;28;20429;-88
2023/07/01 00:43:09;;;;;;;3.67;1.30;;;;;;;17.63;53.25;100649.19;5029740;28;20037;-88
2023/07/01 00:45:35;;;;;;;2.70;1.27;;;;;;;17.62;52.72;100629.09;5028157;28;20025;-88
2023/07/01 00:48:00;;;;;;;5.40;1.35;;;;;;;17.60;53.07;100629.16;5029168;28;20025;-88
2023/07/01 00:50:25;;;;;;;2.78;1.27;;;;;;;17.57;53.60;100624.94;5024854;28;20444;-88
2023/07/01 00:52:51;;;;;;;3.42;1.15;;;;;;;17.56;53.59;100623.22;5023981;28;20087;-88
2023/07/01 00:55:16;;;;;;;5.43;1.40;;;;;;;17.54;54.08;100619.84;5026721;28;20044;-87
2023/07/01 00:57:41;;;;;;;3.47;1.30;;;;;;;17.54;53.76;100611.13;5026696;28;20025;-88
2023/07/01 01:00:10;;;;;;;2.22;1.40;;;;;;;17.52;54.08;100616.44;5027381;28;20467;-88
2023/07/01 01:02:54;;;;;;;4.50;1.58;;;;;;;17.53;53.75;100606.78;5025545;28;20025;-88
2023/07/01 01:05:27;;;;;;;3.10;1.65;;;;;;;17.52;54.79;100613.81;5007060;28;20419;-87
2023/07/01 01:08:10;;;;;;;4.15;1.35;;;;;;;17.52;54.24;100608.56;5025073;28;20048;-87
2023/07/01 01:10:39;;;;;;;2.65;1.27;;;;;;;17.52;54.52;100607.72;5010763;28;20044;-88
2023/07/01 01:13:06;;;;;;;1.90;1.27;;;;;;;17.50;54.79;100599.09;5028936;28;20500;-87
2023/07/01 01:15:31;;;;;;;3.65;1.15;;;;;;;17.50;54.82;100601.72;5028575;28;20133;-87
2023/07/01 01:18:02;;;;;;;2.97;1.27;;;;;;;17.50;54.72;100604.34;5030219;28;20104;-88
2023/07/01 01:20:31;;;;;;;4.53;1.50;;;;;;;17.51;54.67;100598.16;5027921;28;20036;-87
2023/07/01 01:23:13;;;;;;;5.03;1.30;;;;;;;17.50;54.35;100594.69;5028387;28;20029;-87
2023/07/01 01:26:00;;;;;;;4.03;1.20;;;;;;;17.51;55.70;100593.72;5029139;28;20025;-87
2023/07/01 01:28:26;;;;;;;3.40;1.17;;;;;;;17.50;55.59;100585.94;5028718;28;20044;-87
2023/07/01 01:30:51;;;;;;;3.90;1.40;;;;;;;17.51;55.79;100585.81;5027392;28;20025;-87
2023/07/01 01:33:17;;;;;;;4.93;1.40;;;;;;;17.51;55.85;100587.63;5028312;28;20026;-88
2023/07/01 01:35:43;;;;;;;2.28;1.35;;;;;;;17.52;55.74;100586.69;5029306;28;21642;-87
2023/07/01 01:38:18;;;;;;;3.95;1.50;;;;;;;17.53;55.48;100585.75;5029516;28;20038;-87
2023/07/01 01:40:49;;;;;;;3.38;1.30;;;;;;;17.53;56.17;100585.75;5026863;28;20039;-87
2023/07/01 01:43:20;;;;;;;;;;;;;;;17.57;54.89;100577.59;5028947;28;20026;-88
2023/07/01 01:45:47;;;;;;;2.70;1.40;;;;;;;17.55;56.56;100571.56;5026987;28;20675;-87
2023/07/01 01:48:13;;;;;;;2.50;1.38;;;;;;;17.54;57.05;100574.31;5026552;28;20030;-87
2023/07/01 01:50:39;;;;;;;4.28;1.50;;;;;;;17.54;56.97;100561.16;5025702;28;20047;-88
2023/07/01 01:53:05;;;;;;;3.47;1.45;;;;;;;17.55;56.82;100562.84;5027901;28;20029;-88
2023/07/01 01:55:31;;;;;;;4.90;1.40;;;;;;;17.57;57.43;100566.22;5026376;28;20443;-86
2023/07/01 01:57:58;;;;;;;4.00;1.45;;;;;;;17.56;57.66;100554.00;5026370;28;20072;-88
2023/07/01 02:00:24;;;;;;;4.00;1.40;;;;;;;17.56;58.85;100548.75;5022939;28;20460;-88
2023/07/01 02:02:49;;;;;;;3.30;1.40;;;;;;;17.56;58.52;100554.00;5028731;28;20108;-87
2023/07/01 02:05:14;;;;;;;4.05;1.75;;;;;;;17.56;58.69;100546.13;5030040;28;20025;-86
2023/07/01 02:07:40;;;;;;;3.10;1.40;;;;;;;17.53;59.19;100543.66;5029373;28;20026;-88
2023/07/01 02:10:06;;;;;;;3.45;1.42;;;;;;;17.54;59.61;100550.63;5026831;28;20029;-88
2023/07/01 02:12:31;;;;;;;5.03;1.65;;;;;;;17.51;59.54;100545.53;5031103;28;20385;-86
2023/07/01 02:14:57;;;;;;;3.45;1.60;;;;;;;17.50;60.18;100533.31;5030075;28;20029;-87
2023/07/01 02:17:22;;;;;;;4.63;1.60;;;;;;;17.48;60.01;100532.56;5032023;28;20021;-88
2023/07/01 02:19:47;;;;;;;3.80;1.67;;;;;;;17.47;59.99;100538.75;5032576;28;20064;-88
2023/07/01 02:22:13;;;;;;;4.97;1.58;;;;;;;17.44;60.60;100530.13;5032472;28;20022;-88
2023/07/01 02:24:38;;;;;;;3.50;1.50;;;;;;;17.44;60.98;100529.28;5029587;28;20112;-88
2023/07/01 02:27:04;;;;;;;4.82;1.58;;;;;;;17.44;60.54;100524.03;5028822;28;20042;-87
2023/07/01 02:29:29;;;;;;;3.72;1.60;;;;;;;17.42;60.98;100524.09;5030039;28;20029;-88
2023/07/01 02:31:54;;;;;;;3.90;1.80;;;;;;;17.41;61.37;100519.81;5030963;28;20381;-88
2023/07/01 02:34:26;;;;;;;2.92;1.55;;;;;;;17.41;61.19;100522.44;5029278;28;20037;-88
2023/07/01 02:36:55;;;;;;;3.42;1.60;;;;;;;17.39;61.43;100518.19;5030630;28;20542;-88
2023/07/01 02:39:20;;;;;;;3.10;1.40;;;;;;;17.37;61.46;100513.03;5028848;28;20030;-88
2023/07/01 02:41:45;;;;;;;5.03;1.60;;;;;;;17.37;61.72;100507.78;5029574;28;20033;-88
2023/07/01 02:44:11;;;;;;;3.72;1.65;;;;;;;17.35;62.25;100501.75;5028622;28;20029;-88
2023/07/01 02:46:36;;;;;;;3.00;1.60;;;;;;;17.35;62.71;100499.13;5031056;28;20036;-88
2023/07/01 02:49:02;;;;;;;3.33;1.70;;;;;;;17.33;62.99;100506.25;5032881;28;20472;-87
2023/07/01 02:51:27;;;;;;;3.85;1.65;;;;;;;17.31;62.98;100502.03;5027532;28;20073;-88
2023/07/01 02:53:53;;;;;;;2.80;1.60;;;;;;;17.29;63.43;100510.88;5028869;28;20036;-87
2023/07/01 02:56:18;;;;;;;2.92;1.60;;;;;;;17.33;65.12;100508.06;5033048;28;20018;-87
2023/07/01 02:58:43;;;;;;;4.38;1.55;;;;;;;17.31;66.14;100497.63;5032617;28;20025;-87
2023/07/01 03:01:08;;;;;;;2.45;1.40;;;;;;;17.28;66.63;100505.69;5032553;28;20022;-88
2023/07/01 03:03:34;;;;;;;3.90;1.60;;;;;;;17.26;67.33;100510.19;5028799;28;20374;-87
2023/07/01 03:05:59;;;;;;;2.55;1.30;;;;;;;17.22;67.27;100503.44;5010006;28;20132;-86
2023/07/01 03:08:25;;;;;;;4.53;1.50;;;;;;;17.17;67.61;100500.22;5030045;28;20369;-87
2023/07/01 03:10:50;;;;;;;3.55;1.30;;;;;;;17.13;68.06;100495.13;5029371;28;20033;-87
2023/07/01 03:13:16;;;;;;;6.25;1.52;;;;;;;17.11;68.28;100497.00;5030843;28;20061;-87
2023/07/01 03:15:41;;;;;;;2.67;1.48;;;;;;;17.09;68.44;100493.63;5027356;28;20112;-88
2023/07/01 03:18:07;;;;;;;2.55;1.33;;;;;;;17.07;68.91;100498.16;5030573;28;20029;-88
2023/07/01 03:20:32;;;;;;;4.82;1.40;;;;;;;17.04;69.22;100487.81;5031052;28;20111;-86
2023/07/01 03:22:57;;;;;;;4.35;1.65;;;;;;;17.01;70.31;100479.25;5029717;28;20495;-87
2023/07/01 03:25:27;;;;;;;2.97;1.50;;;;;;;16.97;71.05;100481.22;5030368;28;20041;-88
2023/07/01 03:27:52;;;;;;;4.40;1.35;;;;;;;16.89;72.78;100475.53;5030036;28;20112;-87
2023/07/01 03:30:21;;;;;;;4.40;1.40;;;;;;;16.83;73.36;100474.09;5012338;28;20450;-86
2023/07/01 03:32:48;;;;;;;5.20;1.20;;;;;;;16.75;74.48;100469.28;5029941;28;20068;-87
2023/07/01 03:35:15;;;;;;;2.78;1.33;;;;;;;16.71;74.66;100466.94;5026473;28;20060;-87
2023/07/01 03:37:42;;;;;;;2.50;1.40;;;;;;;16.66;75.40;100469.81;5026904;28;20045;-87
2023/07/01 03:40:11;;;;;;;2.72;1.38;;;;;;;16.64;75.39;100461.19;5030559;28;20490;-87
2023/07/01 03:42:37;;;;;;;3.20;1.52;;;;;;;16.57;76.00;100460.69;5029315;28;20068;-87
2023/07/01 03:45:05;;;;;;;2.88;1.50;;;;;;;16.51;76.80;100464.53;5029097;28;20122;-88
2023/07/01 03:47:30;;;;;;;3.50;1.50;;;;;;;16.49;76.17;100461.13;5028741;28;20048;-85
2023/07/01 03:49:56;;;;;;;2.78;1.60;;;;;;;16.45;76.38;100462.22;5030906;28;20095;-86
2023/07/01 03:52:21;;;;;;;2.35;1.35;;;;;;;16.44;76.55;100455.28;5029950;28;20049;-87
2023/07/01 03:54:46;;;;;;;3.85;1.40;;;;;;;16.42;76.96;100461.56;5029956;28;20021;-87
2023/07/01 03:57:12;;;;;;;2.30;1.40;;;;;;;16.38;77.66;100455.66;5028678;28;20029;-87
2023/07/01 03:59:37;;;;;;;2.88;1.58;;;;;;;16.38;78.04;100460.91;5029243;28;20176;-86
2023/07/01 04:02:03;;;;;;;3.13;1.55;;;;;;;16.33;78.81;100452.44;5029870;28;20033;-85
2023/07/01 04:04:29;;;;;;;3.95;1.55;;;;;;;16.29;79.57;100451.75;5029905;28;20511;-88
2023/07/01 04:06:54;;;;;;;2.85;1.40;;;;;;;16.23;80.29;100452.09;5029211;28;20112;-85
2023/07/01 04:09:20;;;;;;;2.42;1.50;;;;;;;16.19;80.40;100445.31;5028177;28;20024;-87
2023/07/01 04:11:46;;;;;;;3.50;1.50;;;;;;;16.15;80.94;100449.03;5030073;28;20388;-87
2023/07/01 04:14:15;;;;;;;2.20;1.45;;;;;;;16.11;81.53;100445.75;5026409;28;20117;-88
2023/07/01 04:16:44;;;;;;;2.95;1.65;;;;;;;16.06;82.57;100434.66;5026167;28;20022;-86
2023/07/01 04:19:09;;;;;;;2.17;1.60;;;;;;;16.03;82.54;100435.66;5027540;28;20053;-88
2023/07/01 04:21:34;;;;;;;2.72;1.40;;;;;;;15.99;82.78;100433.31;5030545;28;20484;-86
2023/07/01 04:24:03;;;;;;;4.03;1.30;;;;;;;15.97;83.41;100429.91;5027910;28;20044;-88
2023/07/01 04:26:29;;;;;;;3.35;1.48;;;;;;;15.95;83.76;100427.41;5026852;28;20044;-88
2023/07/01 04:28:55;;;;;;;2.20;1.58;;;;;;;15.93;84.37;100430.09;5026022;28;20013;-87
2023/07/01 04:31:20;;;;;;;2.70;1.48;;;;;;;15.91;84.38;100426.69;5023371;28;20036;-87
2023/07/01 04:33:46;;;;;;;2.70;1.63;;;;;;;15.90;84.60;100422.38;5030152;28;20064;-88
2023/07/01 04:36:11;;;;;;;3.65;1.75;;;;;;;15.84;84.72;100420.06;5026050;28;20033;-86
2023/07/01 04:38:36;;;;;;;4.47;1.75;;;;;;;15.78;85.99;100415.16;5029273;28;20107;-88
2023/07/01 04:41:01;;;;;;;2.75;1.55;;;;;;;15.73;86.59;100407.53;5027213;28;20059;-87
2023/07/01 04:43:28;;;;;;;3.42;1.70;;;;;;;15.71;86.74;100419.06;5026402;28;20079;-87
2023/07/01 04:45:54;;;;;;;2.13;1.48;;;;;;;15.68;86.97;100413.97;5026644;28;20112;-87
2023/07/01 04:48:19;;;;;;;3.95;1.90;;;;;;;15.65;87.44;100407.09;5027946;28;20417;-86
2023/07/01 04:50:44;;;;;;;2.47;1.50;;;;;;;15.65;87.39;100414.13;5028712;28;20021;-87
2023/07/01 04:53:10;;;;;;;1.80;1.30;;;;;;;15.63;87.70;100401.94;5027613;28;20052;-88
2023/07/01 04:55:35;;;;;;;2.60;1.67;;;;;;;15.62;88.05;100400.25;5028178;28;20030;-87
2023/07/01 04:58:00;;;;;;;1.85;1.50;;;;;;;15.62;88.06;100404.66;5030705;28;20457;-87
2023/07/01 05:00:25;;;;;;;1.92;1.60;;;;;;;15.60;88.59;100398.66;5028442;28;20057;-88
2023/07/01 05:02:51;;;;;;;2.15;1.55;;;;;;;15.60;88.90;100407.34;5022030;28;20545;-88
2023/07/01 05:05:16;;;;;;;2.28;1.40;;;;;;;15.58;89.23;100392.66;5026345;28;20535;-87
2023/07/01 05:07:41;;;;;;;2.47;1.65;;;;;;;15.55;89.89;100393.63;5026661;28;20030;-87
2023/07/01 05:10:07;;;;;;;2.15;1.50;;;;;;;15.55;89.82;100392.81;5027688;28;20022;-87
2023/07/01 05:12:32;;;;;;;2.17;1.60;;;;;;;15.55;90.36;100390.19;5024054;28;20416;-87
2023/07/01 05:14:58;;;;;;;2.28;1.52;;;;;;;15.55;90.09;100391.00;5027710;28;20033;-87
2023/07/01 05:17:23;;;;;;;2.40;1.60;;;;;;;15.56;90.08;100387.47;5029918;28;20028;-87
2023/07/01 05:19:48;;;;;;;2.25;1.50;;;;;;;15.56;90.37;100390.09;5030471;28;20033;-88
2023/07/01 05:22:14;;;;;;;2.65;1.35;;;;;;;15.56;89.93;100392.72;5029289;28;20052;-87
2023/07/01 05:24:39;;;;;;;2.08;1.55;;;;;;;15.58;90.05;100390.03;5027941;28;20032;-86
2023/07/01 05:27:04;;;;;;;2.50;1.48;;;;;;;15.57;90.34;100389.16;5027223;28;20180;-87
2023/07/01 05:29:30;;;;;;;2.20;1.50;;;;;;;15.59;90.47;100391.72;5028360;28;20030;-87
2023/07/01 05:31:56;;;;;;;2.20;1.60;;;;;;;15.58;90.62;100385.63;5026069;28;20104;-88
2023/07/01 05:34:23;;;;;;;2.15;1.60;;;;;;;15.59;91.04;100389.94;5031161;28;20029;-88
2023/07/01 05:36:48;;;;;;;2.15;1.58;;;;;;;15.60;90.84;100386.38;5029650;28;20045;-87
2023/07/01 05:39:13;;;;;;;4.22;1.60;;;;;;;15.61;90.61;100379.38;5031045;28;20119;-87
2023/07/01 05:41:39;;;;;;;2.15;1.73;;;;;;;15.61;90.83;100390.69;5030202;28;20025;-88
2023/07/01 05:44:05;;;;;;;2.53;1.80;;;;;;;15.61;91.08;100382.81;5031798;28;20116;-87
2023/07/01 05:46:30;;;;;;;2.15;1.67;;;;;;;15.61;91.28;100380.22;5031613;28;20160;-88
2023/07/01 05:48:55;;;;;;;2.90;1.80;;;;;;;15.62;90.94;100381.91;5034100;28;20563;-87
2023/07/01 05:51:21;;;;;;;2.58;1.90;;;;;;;15.64;91.07;100381.81;5028473;28;20362;-88
2023/07/01 05:53:46;;;;;;;2.42;1.95;;;;;;;15.63;90.98;100370.47;5029888;28;20029;-87
2023/07/01 05:56:12;;;;;;;2.58;2.00;;;;;;;15.63;91.38;100377.50;5032642;28;20490;-87
2023/07/01 05:58:37;;;;;;;2.67;1.98;;;;;;;15.66;90.78;100379.13;5033643;28;20087;-85
2023/07/01 06:01:02;;;;;;;3.03;2.35;;;;;;;15.63;91.43;100375.72;5031040;28;20472;-87
2023/07/01 06:03:27;;;;;;;3.22;2.00;;;;;;;15.65;91.39;100380.03;5030680;28;20029;-87
2023/07/01 06:05:53;;;;;;;3.13;2.42;;;;;;;15.63;91.44;100365.25;5029464;28;20032;-89
2023/07/01 06:08:18;;;;;;;2.72;2.38;;;;;;;15.63;92.05;100362.63;5031899;28;20033;-87
2023/07/01 06:10:43;;;;;;;2.97;2.40;;;;;;;15.65;92.12;100372.19;5029454;28;20079;-86
2023/07/01 06:13:08;;;;;;;3.35;2.63;;;;;;;15.65;92.28;100370.38;5029648;28;20024;-87
2023/07/01 06:15:34;;;;;;;4.15;2.50;;;;;;;15.64;92.20;100368.69;5031589;28;20025;-86
2023/07/01 06:17:59;;;;;;;4.72;2.75;;;;;;;15.65;92.74;100365.16;5032055;28;20386;-87
2023/07/01 06:20:24;;;;;;;3.50;2.70;;;;;;;15.66;92.66;100363.38;5028450;28;20021;-86
2023/07/01 06:22:50;;;;;;;3.63;2.80;;;;;;;15.68;92.62;100358.91;5030243;28;20056;-87
2023/07/01 06:25:15;;;;;;;4.20;2.58;;;;;;;15.70;92.72;100365.75;5029317;28;20029;-85
2023/07/01 06:27:40;;;;;;;3.72;3.00;;;;;;;15.72;92.14;100358.66;5033120;28;20496;-86
2023/07/01 06:30:06;;;;;;;3.70;2.85;;;;;;;15.75;92.61;100352.38;5031474;28;20060;-87
2023/07/01 06:32:31;;;;;;;4.35;2.55;;;;;;;15.76;92.93;100354.94;5028115;28;20415;-86
2023/07/01 06:34:57;;;;;;;3.08;2.63;;;;;;;15.81;93.16;100357.28;5027780;28;20038;-87
2023/07/01 06:37:22;;;;;;;2.92;2.63;;;;;;;15.82;92.78;100364.22;5028198;28;20033;-88
2023/07/01 06:39:47;;;;;;;3.90;2.85;;;;;;;15.86;92.30;100352.69;5029312;28;20387;-87
2023/07/01 06:42:12;;;;;;;3.67;2.75;;;;;;;15.88;93.13;100352.56;5027743;28;20026;-87
2023/07/01 06:44:38;;;;;;;3.53;2.50;;;;;;;15.88;93.53;100356.06;5030259;28;20025;-86
2023/07/01 06:47:04;;;;;;;3.30;2.70;;;;;;;15.89;93.88;100355.09;5028796;28;20026;-87
2023/07/01 06:49:29;;;;;;;3.47;2.60;;;;;;;15.91;93.49;100347.16;5031806;28;20116;-87
2023/07/01 06:51:54;;;;;;;2.97;2.60;;;;;;;15.91;93.50;100353.25;5028881;28;20033;-87
2023/07/01 06:54:20;;;;;;;2.55;2.33;;;;;;;15.93;93.02;100351.38;5028207;28;20025;-86
2023/07/01 06:56:45;;;;;;;4.18;2.25;;;;;;;15.92;93.09;100354.94;5030642;28;20037;-89
2023/07/01 06:59:10;;;;;;;2.22;2.03;;;;;;;15.93;94.54;100347.94;5026149;28;20502;-89
2023/07/01 07:01:36;;;;;;;3.20;2.30;;;;;;;15.93;93.96;100347.94;5029952;28;20052;-92
2023/07/01 07:04:01;;;;;;;3.38;2.50;;;;;;;15.93;93.94;100342.69;5027122;28;20029;-87
2023/07/01 07:06:26;;;;;;;2.83;2.40;;;;;;;15.93;94.23;100351.38;5030602;28;20029;-87
2023/07/01 07:08:51;;;;;;;2.42;2.22;;;;;;;15.95;93.86;100342.59;5027428;28;20529;-86
2023/07/01 07:11:17;;;;;;;3.75;2.50;;;;;;;15.97;94.12;100340.72;5029445;28;20465;-87
2023/07/01 07:13:42;;;;;;;2.85;2.30;;;;;;;15.99;93.68;100341.47;5029719;28;20025;-87
2023/07/01 07:16:07;;;;;;;2.65;2.33;;;;;;;15.99;93.69;100344.09;5031287;28;20503;-89
2023/07/01 07:18:33;;;;;;;2.42;2.10;;;;;;;16.00;93.92;100345.81;5031475;28;20084;-89
2023/07/01 07:20:58;;;;;;;2.67;2.05;;;;;;;16.00;92.96;100338.75;5030568;28;20026;-89
2023/07/01 07:23:23;;;;;;;2.75;2.25;;;;;;;16.01;93.16;100347.50;5009957;28;20029;-88
2023/07/01 07:25:48;;;;;;;2.67;2.10;;;;;;;16.01;92.99;100345.69;5028079;28;20442;-88
2023/07/01 07:28:14;;;;;;;3.35;2.10;;;;;;;16.01;93.04;100340.44;5023768;28;20057;-91
2023/07/01 07:30:39;;;;;;;2.85;2.50;;;;;;;16.02;93.04;100342.16;5029712;28;20030;-88
2023/07/01 07:33:04;;;;;;;2.70;2.08;;;;;;;16.03;93.55;100338.59;5025490;28;20025;-88
2023/07/01 07:35:30;;;;;;;2.92;2.30;;;;;;;16.05;93.26;100338.53;5028679;28;20181;-88
2023/07/01 07:37:55;;;;;;;2.97;2.30;;;;;;;16.06;93.19;100340.19;5027689;28;20042;-88
2023/07/01 07:40:20;;;;;;;2.33;1.98;;;;;;;16.05;93.32;100341.97;5025350;28;20100;-87
2023/07/01 07:42:46;;;;;;;4.70;2.08;;;;;;;16.06;93.23;100340.19;5029704;28;20504;-88
2023/07/01 07:45:12;;;;;;;2.40;2.20;;;;;;;16.05;93.30;100341.97;5029080;28;20033;-89
2023/07/01 07:47:37;;;;;;;2.60;2.00;;;;;;;16.08;93.78;100343.56;5029170;28;20068;-88
2023/07/01 07:50:03;;;;;;;3.17;2.08;;;;;;;16.11;93.48;100338.16;5029388;28;20053;-87
2023/07/01 07:52:29;;;;;;;3.17;2.20;;;;;;;16.12;94.30;100339.84;5029186;28;20112;-90
2023/07/01 07:54:54;;;;;;;3.05;2.30;;;;;;;16.13;93.84;100340.72;5024812;28;20451;-90
2023/07/01 07:57:19;;;;;;;3.92;2.10;;;;;;;16.15;93.86;100331.81;5028223;28;20494;-90
2023/07/01 07:59:45;;;;;;;2.60;2.03;;;;;;;16.19;94.30;100338.56;5025631;28;20040;-88
2023/07/01 08:02:10;;;;;;;3.35;2.15;;;;;;;16.20;94.24;100331.53;5027636;28;20021;-88
2023/07/01 08:04:36;;;;;;;2.05;1.77;;;;;;;16.21;94.45;100326.22;5027511;28;20025;-87
2023/07/01 08:07:01;;;;;;;2.08;1.83;;;;;;;16.22;94.04;100329.66;5026944;28;20052;-88
2023/07/01 08:09:28;;;;;;;2.50;1.90;;;;;;;16.25;93.99;100324.25;5025906;28;20461;-88
2023/07/01 08:11:54;;;;;;;2.88;1.85;;;;;;;16.26;94.87;100328.56;5011189;28;21532;-88
2023/07/01 08:14:20;;;;;;;2.47;2.05;;;;;;;16.30;94.88;100321.34;5027536;28;20025;-87
2023/07/01 08:16:45;;;;;;;4.57;2.03;;;;;;;16.33;95.41;100315.91;5024655;28;20434;-88
2023/07/01 08:19:11;;;;;;;2.53;1.88;;;;;;;16.33;95.39;100316.75;5027624;28;20029;-88
2023/07/01 08:21:37;;;;;;;2.28;1.85;;;;;;;16.35;94.64;100314.06;5027155;28;20424;-87
2023/07/01 08:24:04;;;;;;;2.15;1.90;;;;;;;16.37;94.98;100317.44;5029906;28;20033;-86
2023/07/01 08:26:29;;;;;;;4.25;2.25;;;;;;;16.39;95.25;100315.56;5029479;28;20112;-89
2023/07/01 08:28:54;;;;;;;2.65;1.88;;;;;;;16.43;94.85;100314.44;5022912;28;20555;-89
2023/07/01 08:31:19;;;;;;;2.00;1.88;;;;;;;16.45;95.16;100320.44;5025663;28;20018;-91
2023/07/01 08:33:45;;;;;;;2.63;2.05;;;;;;;16.49;94.87;100316.72;5028409;28;20738;-87
2023/07/01 08:36:10;;;;;;;2.40;2.10;;;;;;;16.52;95.10;100318.28;5028579;28;20035;-87
2023/07/01 08:38:35;;;;;;;2.40;2.20;;;;;;;16.57;94.86;100312.81;5029143;28;20469;-86
2023/07/01 08:41:04;;;;;;;2.15;1.83;;;;;;;16.60;95.14;100307.34;5030030;28;20392;-90
2023/07/01 08:43:33;;;;;;;4.13;1.85;;;;;;;16.63;94.90;100312.41;5026145;28;20031;-90
2023/07/01 08:46:05;;;;;;;2.50;2.00;;;;;;;16.67;95.82;100316.56;5007846;28;20025;-88
2023/07/01 08:48:32;;;;;;;2.38;1.90;;;;;;;16.69;96.58;100312.06;5026601;28;20424;-89
2023/07/01 08:51:11;;;;;;;2.03;1.83;;;;;;;16.73;96.24;100308.31;5022254;28;20033;-88
2023/07/01 08:53:38;;;;;;;2.85;2.28;;;;;;;16.78;95.46;100305.41;5009453;28;20535;-88
2023/07/01 08:56:04;;;;;;;2.15;1.75;;;;;;;16.81;95.97;100306.06;5025965;28;20388;-88
2023/07/01 08:58:30;;;;;;;2.13;1.92;;;;;;;16.83;95.75;100304.19;5025919;28;20396;-88
2023/07/01 09:00:56;;;;;;;2.78;1.85;;;;;;;16.84;95.76;100305.88;5025947;28;20029;-90
2023/07/01 09:03:22;;;;;;;1.75;1.50;;;;;;;16.84;96.06;100305.88;5023770;28;20072;-87
2023/07/01 09:05:48;;;;;;;1.77;1.67;;;;;;;16.87;96.21;100306.63;5024216;28;20496;-87
2023/07/01 09:08:13;;;;;;;3.22;1.80;;;;;;;16.89;97.00;100308.22;5029619;28;20435;-87
2023/07/01 09:10:38;;;;;;;1.80;1.70;;;;;;;16.91;96.65;100301.09;5032356;28;20113;-86
2023/07/01 09:13:13;;;;;;;2.28;1.75;;;;;;;16.95;97.06;100310.50;5014420;28;20045;-89
2023/07/01 09:15:45;;;;;;;1.60;1.50;;;;;;;16.99;95.92;100292.75;5029172;28;20036;-85
2023/07/01 09:18:20;;;;;;;1.40;1.30;;;;;;;17.00;95.50;100302.34;5029184;28;20029;-85
2023/07/01 09:20:45;;;;;;;1.63;1.20;;;;;;;16.99;96.24;100296.22;5030545;28;20057;-86
2023/07/01 09:23:11;;;;;;;1.40;1.13;;;;;;;17.01;96.92;100296.16;5028188;28;20049;-86
2023/07/01 09:25:36;;;;;;;1.20;1.10;;;;;;;17.04;96.89;100298.59;5029955;28;20021;-86
2023/07/01 09:28:01;;;;;;;0.90;0.90;;;;;;;17.08;97.30;100292.19;5026942;28;20103;-86
2023/07/01 09:30:28;;;;;;;0.60;0.60;;;;;;;17.13;96.25;100297.19;5025523;28;20034;-86
2023/07/01 09:33:13;;;;;;;0.70;0.70;;;;;;;17.16;96.62;100294.38;5025948;28;20026;-91
2023/07/01 09:35:46;;;;;;;0.73;0.70;;;;;;;17.21;96.80;100291.44;5025663;28;20108;-87
2023/07/01 09:38:11;;;;;;;0.63;0.63;;;;;;;17.24;97.23;100294.72;5023632;28;20693;-87
2023/07/01 09:40:37;;;;;;;1.98;0.57;;;;;;;17.29;97.22;100283.91;5025437;28;20061;-87
2023/07/01 09:43:02;;;;;;;0.65;0.60;;;;;;;17.31;96.83;100295.16;5025691;28;20036;-87
2023/07/01 09:45:27;;;;;;;1.33;0.50;;;;;;;17.31;96.44;100289.91;5027475;28;20021;-86
2023/07/01 09:47:53;;;;;;;1.20;0.50;;;;;;;17.33;96.65;100288.03;5024119;28;20389;-88
2023/07/01 09:50:23;;;;;;;0.65;0.50;;;;;;;17.36;96.55;100279.94;5026821;28;20035;-87
2023/07/01 09:52:50;;;;;;;0.50;0.50;;;;;;;17.36;97.12;100277.31;5022946;28;20028;-87
2023/07/01 09:55:16;;;;;;;0.60;0.40;;;;;;;17.37;96.98;100273.75;5011809;28;20492;-86
2023/07/01 09:57:41;;;;;;;0.50;0.50;;;;;;;17.40;97.26;100277.97;5006748;28;20108;-87
2023/07/01 10:00:10;;;;;;;0.60;0.50;;;;;;;17.42;97.49;100279.53;5029823;28;20121;-87
2023/07/01 10:02:35;;;;;;;0.40;0.40;;;;;;;17.48;97.50;100275.72;5029849;28;20040;-89
2023/07/01 10:05:01;;;;;;;0.40;0.40;;;;;;;17.50;97.07;100275.59;5027991;28;20037;-90
2023/07/01 10:07:27;;;;;;;0.40;0.40;;;;;;;17.50;97.18;100276.47;5032292;28;20503;-87
2023/07/01 10:09:52;;;;;;;0.50;0.50;;;;;;;17.51;96.27;100278.13;5028847;28;20047;-88
2023/07/01 10:12:20;;;;;;;0.80;0.52;;;;;;;17.55;97.25;100278.78;5024198;28;20025;-86
2023/07/01 10:14:48;;;;;;;1.48;0.60;;;;;;;17.59;97.42;100277.66;5025638;28;21321;-87
2023/07/01 10:17:15;;;;;;;0.82;0.60;;;;;;;17.66;97.29;100271.03;5027490;28;20021;-87
2023/07/01 10:19:46;;;;;;;0.65;0.63;;;;;;;17.71;95.71;100268.97;5026921;28;20113;-88
2023/07/01 10:22:20;;;;;;;2.45;0.63;;;;;;;17.77;95.87;100266.84;5024582;28;20487;-88
2023/07/01 10:24:53;;;;;;;0.60;0.60;;;;;;;17.84;95.66;100269.00;5003744;28;20492;-86
2023/07/01 10:27:44;;;;;;;1.38;0.63;;;;;;;17.93;95.82;100269.34;5023273;28;20138;-87
2023/07/01 10:30:13;;;;;;;1.23;0.65;;;;;;;17.96;95.31;100272.59;5025024;28;20042;-88
2023/07/01 10:32:39;;;;;;;0.70;0.70;;;;;;;17.97;95.67;100268.19;5022099;28;20037;-88
2023/07/01 10:35:05;;;;;;;0.57;0.57;;;;;;;17.96;95.09;100269.97;5021837;28;20047;-88
2023/07/01 10:37:33;;;;;;;0.90;0.68;;;;;;;17.98;95.43;100268.09;5016411;28;20033;-88
2023/07/01 10:40:00;;;;;;;0.80;0.60;;;;;;;18.03;94.95;100268.66;5019215;28;20039;-89
2023/07/01 10:42:33;;;;;;;0.85;0.65;;;;;;;18.08;95.68;100259.63;5020399;28;20041;-88
2023/07/01 10:45:11;;;;;;;1.23;0.80;;;;;;;18.17;94.17;100256.34;5023007;28;20480;-87
2023/07/01 10:47:37;;;;;;;1.13;0.70;;;;;;;18.26;93.58;100262.78;5024800;28;20033;-87
2023/07/01 10:50:04;;;;;;;0.60;0.55;;;;;;;18.29;93.83;100258.16;5025561;28;20052;-85
2023/07/01 10:52:31;;;;;;;1.27;0.70;;;;;;;18.31;94.36;100258.91;5024312;28;20079;-91
2023/07/01 10:54:59;;;;;;;1.33;0.68;;;;;;;18.34;95.07;100258.69;5021680;28;20048;-89
2023/07/01 10:57:25;;;;;;;1.33;0.90;;;;;;;18.37;94.15;100259.44;5021878;28;20041;-89
2023/07/01 10:59:50;;;;;;;1.45;1.23;;;;;;;18.39;93.36;100262.81;5025915;28;20025;-88
2023/07/01 11:02:35;;;;;;;1.55;1.10;;;;;;;18.37;93.10;100267.34;5017620;28;20404;-88
2023/07/01 11:05:03;;;;;;;2.17;1.30;;;;;;;18.40;93.79;100260.06;5025029;28;20079;-89
2023/07/01 11:07:28;;;;;;;1.73;1.10;;;;;;;18.45;94.22;100259.75;5004295;28;20029;-91
2023/07/01 11:09:55;;;;;;;1.30;1.20;;;;;;;18.49;94.12;100253.31;5022850;28;20495;-93
2023/07/01 11:12:21;;;;;;;1.38;1.27;;;;;;;18.58;95.37;100257.13;5027637;28;20044;-92
2023/07/01 11:14:46;;;;;;;2.13;1.63;;;;;;;18.64;92.88;100257.53;5031045;28;20052;-90
2023/07/01 11:17:16;;;;;;;1.85;1.67;;;;;;;18.66;92.80;100255.63;5030150;28;20033;-89
2023/07/01 11:19:44;;;;;;;2.33;1.92;;;;;;;18.65;91.84;100248.69;5024679;28;20048;-89
2023/07/01 11:22:11;;;;;;;2.22;1.80;;;;;;;18.68;92.34;100257.31;5013326;28;20495;-89